createdAt,value
2023-03-05T00:01:14.123Z,0.50
2023-03-05T00:04:17.822Z,0.50
2023-03-05T00:07:20.144Z,0.50
2023-03-05T00:10:22.402Z,0.40
2023-03-05T00:13:24.790Z,0.60
2023-03-05T00:16:28.498Z,0.45
2023-03-05T00:19:32.312Z,0.40
2023-03-05T00:22:35.059Z,0.40
2023-03-05T00:25:37.415Z,0.35
2023-03-05T00:28:39.779Z,0.50
2023-03-05T00:31:44.360Z,0.50
2023-03-05T00:34:49.878Z,0.40
2023-03-05T00:37:54.300Z,0.50
2023-03-05T00:40:56.589Z,0.50
2023-03-05T00:43:58.997Z,0.40
2023-03-05T00:47:01.379Z,0.60
2023-03-05T00:50:06.912Z,0.30
2023-03-05T00:53:09.289Z,0.50
2023-03-05T00:56:11.801Z,0.63
2023-03-05T00:59:14.163Z,0.80
2023-03-05T01:02:16.503Z,0.30
2023-03-05T01:05:20.635Z,0.52
2023-03-05T01:08:23.119Z,0.45
2023-03-05T01:11:26.144Z,0.40
2023-03-05T01:14:28.528Z,0.50
2023-03-05T01:17:30.845Z,0.50
2023-03-05T01:20:34.472Z,0.50
2023-03-05T01:23:37.548Z,0.43
2023-03-05T01:26:40.304Z,0.60
2023-03-05T01:29:42.592Z,0.30
2023-03-05T01:32:44.897Z,0.30
2023-03-05T01:35:48.729Z,0.35
2023-03-05T01:38:51.597Z,0.40
2023-03-05T01:41:54.061Z,0.40
2023-03-05T01:45:00.720Z,0.40
2023-03-05T01:48:04.032Z,0.50
2023-03-05T01:51:07.804Z,0.20
2023-03-05T01:54:12.211Z,0.55
2023-03-05T01:57:17.377Z,0.40
2023-03-05T02:00:22.915Z,0.30
2023-03-05T02:03:26.128Z,0.50
2023-03-05T02:06:30.137Z,0.40
2023-03-05T02:09:32.393Z,0.30
2023-03-05T02:12:35.110Z,0.35
2023-03-05T02:15:38.184Z,0.38
2023-03-05T02:18:40.575Z,0.40
2023-03-05T02:21:46.141Z,0.55
2023-03-05T02:24:48.455Z,0.40
2023-03-05T02:27:55.210Z,0.20
2023-03-05T02:30:59.004Z,0.32
2023-03-05T02:34:01.631Z,0.38
2023-03-05T02:37:10.207Z,0.50
2023-03-05T02:40:14.464Z,0.30
2023-03-05T02:43:17.752Z,0.57
2023-03-05T02:46:20.389Z,0.20
2023-03-05T02:49:22.750Z,0.30
2023-03-05T02:52:26.904Z,0.20
2023-03-05T02:55:29.260Z,0.20
2023-03-05T02:58:31.657Z,0.20
2023-03-05T03:01:33.973Z,0.22
2023-03-05T03:04:36.351Z,0.20
2023-03-05T03:07:40.050Z,0.55
2023-03-05T03:10:42.380Z,0.20
2023-03-05T03:13:44.664Z,0.30
2023-03-05T03:16:46.990Z,0.20
2023-03-05T03:19:49.509Z,0.40
2023-03-05T03:22:53.728Z,0.28
2023-03-05T03:25:56.205Z,0.20
2023-03-05T03:28:58.548Z,0.50
2023-03-05T03:32:00.846Z,0.30
2023-03-05T03:35:03.456Z,0.22
2023-03-05T03:38:07.176Z,0.30
2023-03-05T03:41:09.886Z,0.30
2023-03-05T03:44:12.787Z,0.20
2023-03-05T03:47:15.543Z,0.40
2023-03-05T03:50:18.053Z,0.30
2023-03-05T03:53:21.720Z,0.35
2023-03-05T03:56:24.173Z,0.30
2023-03-05T03:59:26.585Z,0.30
2023-03-05T04:02:28.971Z,0.20
2023-03-05T04:05:32.562Z,0.30
2023-03-05T04:08:36.219Z,0.30
2023-03-05T04:11:38.536Z,0.30
2023-03-05T04:14:40.873Z,0.43
2023-03-05T04:17:43.163Z,0.30
2023-03-05T04:20:45.451Z,0.30
2023-03-05T04:23:49.096Z,0.70
2023-03-05T04:26:51.348Z,0.65
2023-03-05T04:29:53.673Z,0.55
2023-03-05T04:32:55.996Z,0.50
2023-03-05T04:35:58.377Z,0.43
2023-03-05T04:39:03.301Z,0.50
2023-03-05T04:42:05.993Z,0.40
2023-03-05T04:45:09.325Z,0.40
2023-03-05T04:48:12.076Z,0.30
2023-03-05T04:51:14.393Z,0.40
2023-03-05T04:54:18.083Z,0.30
2023-03-05T04:57:22.173Z,0.40
2023-03-05T05:00:25.840Z,0.40
2023-03-05T05:03:28.177Z,0.47
2023-03-05T05:06:30.514Z,0.30
2023-03-05T05:09:34.176Z,0.40
2023-03-05T05:12:36.512Z,0.30
2023-03-05T05:15:40.831Z,0.50
2023-03-05T05:18:43.149Z,0.50
2023-03-05T05:21:45.750Z,0.43
2023-03-05T05:24:49.405Z,0.35
2023-03-05T05:27:51.736Z,0.40
2023-03-05T05:30:54.383Z,0.60
2023-03-05T05:33:56.675Z,0.35
2023-03-05T05:36:58.978Z,0.45
2023-03-05T05:40:04.529Z,0.70
2023-03-05T05:43:06.901Z,0.30
2023-03-05T05:46:12.285Z,0.30
2023-03-05T05:49:14.765Z,0.32
2023-03-05T05:52:17.119Z,0.38
2023-03-05T05:55:20.899Z,0.43
2023-03-05T05:58:23.268Z,0.30
2023-03-05T06:01:28.229Z,0.35
2023-03-05T06:04:30.612Z,0.50
2023-03-05T06:07:34.445Z,0.40
2023-03-05T06:10:38.197Z,0.47
2023-03-05T06:13:40.540Z,0.30
2023-03-05T06:16:43.011Z,0.40
2023-03-05T06:19:45.692Z,0.43
2023-03-05T06:22:47.953Z,0.43
2023-03-05T06:25:52.121Z,0.60
2023-03-05T06:28:54.900Z,0.73
2023-03-05T06:31:57.333Z,0.60
2023-03-05T06:34:59.669Z,0.50
2023-03-05T06:38:02.091Z,0.30
2023-03-05T06:41:09.210Z,0.43
2023-03-05T06:44:11.788Z,0.50
2023-03-05T06:47:14.607Z,0.63
2023-03-05T06:50:17.159Z,0.47
2023-03-05T06:53:19.506Z,0.60
2023-03-05T06:56:23.239Z,0.73
2023-03-05T06:59:25.601Z,0.82
2023-03-05T07:02:27.961Z,0.63
2023-03-05T07:05:30.955Z,0.55
2023-03-05T07:08:34.261Z,0.50
2023-03-05T07:11:38.053Z,0.47
2023-03-05T07:14:40.501Z,0.60
2023-03-05T07:17:42.877Z,1.25
2023-03-05T07:20:45.223Z,0.68
2023-03-05T07:23:48.023Z,0.50
2023-03-05T07:26:51.709Z,0.50
2023-03-05T07:29:54.078Z,0.43
2023-03-05T07:32:56.335Z,0.50
2023-03-05T07:35:58.938Z,0.50
2023-03-05T07:39:01.831Z,0.80
2023-03-05T07:42:05.802Z,0.93
2023-03-05T07:45:24.314Z,0.52
2023-03-05T07:48:26.895Z,0.50
2023-03-05T07:51:29.564Z,0.80
2023-03-05T07:54:37.559Z,0.50
2023-03-05T07:57:41.268Z,0.73
2023-03-05T08:00:43.693Z,0.50
2023-03-05T08:03:46.182Z,0.50
2023-03-05T08:06:49.930Z,0.57
2023-03-05T08:09:52.338Z,0.57
2023-03-05T08:12:56.370Z,0.70
2023-03-05T08:15:58.944Z,0.55
2023-03-05T08:19:01.439Z,0.60
2023-03-05T08:22:03.807Z,0.40
2023-03-05T08:25:07.725Z,0.55
2023-03-05T08:28:11.511Z,0.35
2023-03-05T08:31:16.121Z,0.57
2023-03-05T08:34:18.499Z,0.57
2023-03-05T08:37:20.800Z,0.60
2023-03-05T08:40:23.300Z,0.73
2023-03-05T08:43:27.100Z,0.50
2023-03-05T08:46:29.609Z,0.60
2023-03-05T08:49:31.963Z,0.82
2023-03-05T08:52:35.589Z,0.60
2023-03-05T08:55:38.128Z,0.60
2023-03-05T08:58:42.127Z,0.63
2023-03-05T09:01:44.595Z,0.70
2023-03-05T09:04:46.957Z,0.93
2023-03-05T09:07:49.237Z,0.90
2023-03-05T09:10:51.702Z,0.80
2023-03-05T09:13:55.356Z,0.60
2023-03-05T09:16:58.400Z,0.70
2023-03-05T09:20:01.258Z,0.70
2023-03-05T09:23:03.967Z,0.70
2023-03-05T09:26:07.012Z,0.57
2023-03-05T09:29:10.843Z,0.68
2023-03-05T09:32:13.219Z,0.70
2023-03-05T09:35:15.656Z,0.60
2023-03-05T09:38:19.276Z,0.52
2023-03-05T09:41:27.984Z,0.93
2023-03-05T09:44:38.665Z,0.55
2023-03-05T09:47:52.694Z,0.70
2023-03-05T09:51:01.310Z,0.80
2023-03-05T09:54:05.446Z,0.70
2023-03-05T09:57:17.278Z,0.60
2023-03-05T10:00:30.100Z,0.65
2023-03-05T10:03:43.369Z,0.60
2023-03-05T10:06:49.487Z,0.85
2023-03-05T10:09:56.856Z,1.00
2023-03-05T10:13:00.635Z,0.70
2023-03-05T10:16:11.136Z,0.80
2023-03-05T10:19:19.641Z,0.70
2023-03-05T10:22:24.023Z,0.70
2023-03-05T10:25:36.159Z,0.80
2023-03-05T10:28:43.716Z,0.73
2023-03-05T10:32:06.781Z,0.88
2023-03-05T10:35:29.330Z,0.90
2023-03-05T10:38:51.070Z,1.10
2023-03-05T10:42:02.350Z,1.00
2023-03-05T10:45:14.339Z,1.27
2023-03-05T10:51:28.889Z,1.63
2023-03-05T10:54:33.986Z,1.60
2023-03-05T10:57:36.284Z,1.25
2023-03-05T11:00:38.799Z,1.80
2023-03-05T11:03:50.131Z,1.40
2023-03-05T11:06:52.425Z,1.40
2023-03-05T11:10:05.061Z,0.88
2023-03-05T11:13:21.545Z,1.00
2023-03-05T11:16:25.784Z,1.00
2023-03-05T11:19:32.886Z,1.15
2023-03-05T11:22:36.155Z,1.20
2023-03-05T11:25:58.838Z,1.25
2023-03-05T11:29:03.339Z,1.33
2023-03-05T11:32:16.198Z,1.48
2023-03-05T11:35:33.927Z,1.27
2023-03-05T11:38:45.444Z,1.45
2023-03-05T11:41:49.708Z,1.08
2023-03-05T11:44:54.736Z,1.02
2023-03-05T11:48:03.965Z,1.40
2023-03-05T11:51:26.850Z,1.60
2023-03-05T11:54:35.205Z,1.35
2023-03-05T11:57:41.906Z,1.50
2023-03-05T12:00:45.984Z,1.67
2023-03-05T12:03:49.094Z,1.15
2023-03-05T12:06:55.134Z,0.95
2023-03-05T12:09:57.351Z,1.10
2023-03-05T12:13:06.201Z,1.40
2023-03-05T12:16:25.736Z,1.23
2023-03-05T12:19:41.307Z,1.10
2023-03-05T12:22:45.272Z,1.52
2023-03-05T12:25:49.055Z,1.30
2023-03-05T12:28:56.589Z,1.17
2023-03-05T12:32:00.995Z,1.05
2023-03-05T12:35:08.164Z,1.02
2023-03-05T12:38:30.662Z,0.70
2023-03-05T12:41:34.800Z,1.00
2023-03-05T12:44:39.720Z,0.93
2023-03-05T12:47:42.703Z,0.90
2023-03-05T12:50:51.529Z,1.15
2023-03-05T12:53:55.195Z,0.80
2023-03-05T12:56:58.839Z,1.02
2023-03-05T13:00:05.438Z,1.00
2023-03-05T13:03:11.598Z,1.00
2023-03-05T13:06:25.147Z,0.90
2023-03-05T13:09:31.373Z,1.38
2023-03-05T13:12:35.697Z,1.10
2023-03-05T13:15:39.013Z,0.90
2023-03-05T13:18:41.748Z,0.90
2023-03-05T13:21:44.199Z,0.95
2023-03-05T13:24:47.965Z,1.20
2023-03-05T13:27:50.308Z,1.10
2023-03-05T13:30:54.149Z,1.20
2023-03-05T13:33:59.721Z,1.00
2023-03-05T13:37:04.971Z,0.80
2023-03-05T13:40:20.155Z,0.90
2023-03-05T13:43:22.521Z,1.10
2023-03-05T13:46:27.769Z,1.13
2023-03-05T13:49:32.600Z,1.30
2023-03-05T13:52:37.303Z,1.10
2023-03-05T13:55:41.779Z,1.08
2023-03-05T13:58:53.206Z,1.10
2023-03-05T14:01:58.998Z,1.20
2023-03-05T14:05:02.339Z,1.15
2023-03-05T14:08:05.152Z,1.33
2023-03-05T14:11:15.703Z,1.13
2023-03-05T14:14:19.111Z,1.00
2023-03-05T14:17:34.080Z,1.10
2023-03-05T14:20:36.406Z,1.17
2023-03-05T14:23:41.543Z,0.90
2023-03-05T14:26:50.051Z,1.33
2023-03-05T14:29:52.668Z,1.15
2023-03-05T14:32:56.058Z,1.10
2023-03-05T14:36:00.269Z,1.10
2023-03-05T14:39:03.677Z,1.02
2023-03-05T14:42:27.326Z,0.93
2023-03-05T14:45:31.405Z,1.00
2023-03-05T14:48:33.710Z,1.20
2023-03-05T14:51:39.494Z,1.00
2023-03-05T14:54:41.840Z,1.15
2023-03-05T14:57:45.987Z,1.17
2023-03-05T15:00:51.123Z,1.10
2023-03-05T15:03:53.741Z,1.33
2023-03-05T15:06:56.107Z,1.20
2023-03-05T15:09:59.689Z,1.50
2023-03-05T15:13:03.450Z,1.17
2023-03-05T15:16:07.070Z,1.17
2023-03-05T15:19:11.510Z,1.20
2023-03-05T15:22:15.167Z,1.13
2023-03-05T15:25:19.009Z,1.20
2023-03-05T15:28:22.728Z,1.25
2023-03-05T15:31:25.299Z,1.17
2023-03-05T15:34:28.070Z,1.50
2023-03-05T15:37:30.456Z,1.40
2023-03-05T15:40:33.203Z,1.33
2023-03-05T15:43:37.046Z,1.20
2023-03-05T15:46:39.372Z,1.30
2023-03-05T15:49:41.870Z,1.60
2023-03-05T15:52:44.834Z,2.10
2023-03-05T15:55:47.333Z,1.92
2023-03-05T15:58:51.295Z,1.58
2023-03-05T16:01:53.697Z,1.73
2023-03-05T16:04:56.025Z,1.73
2023-03-05T16:07:59.070Z,1.40
2023-03-05T16:11:01.466Z,1.65
2023-03-05T16:14:07.443Z,1.85
2023-03-05T16:17:09.796Z,1.85
2023-03-05T16:20:13.262Z,1.63
2023-03-05T16:23:15.554Z,1.98
2023-03-05T16:26:18.881Z,1.83
2023-03-05T16:29:22.519Z,1.90
2023-03-05T16:32:25.599Z,1.95
2023-03-05T16:35:28.048Z,2.10
2023-03-05T16:38:30.573Z,1.90
2023-03-05T16:41:33.755Z,1.67
2023-03-05T16:44:37.435Z,2.05
2023-03-05T16:47:39.911Z,2.10
2023-03-05T16:50:42.223Z,2.25
2023-03-05T16:53:44.586Z,1.85
2023-03-05T16:56:46.946Z,1.85
2023-03-05T16:59:51.421Z,1.60
2023-03-05T17:02:53.746Z,2.63
2023-03-05T17:05:56.093Z,1.65
2023-03-05T17:08:58.602Z,1.70
2023-03-05T17:12:02.068Z,1.65
2023-03-05T17:15:07.289Z,1.65
2023-03-05T17:18:10.063Z,1.70
2023-03-05T17:21:12.778Z,1.52
2023-03-05T17:24:15.123Z,1.52
2023-03-05T17:27:18.871Z,1.20
2023-03-05T17:30:22.970Z,1.40
2023-03-05T17:33:25.358Z,1.38
2023-03-05T17:36:27.756Z,1.67
2023-03-05T17:39:30.466Z,1.50
2023-03-05T17:42:32.981Z,1.75
2023-03-05T17:45:36.775Z,1.90
2023-03-05T17:48:39.407Z,2.05
2023-03-05T17:51:41.720Z,1.83
2023-03-05T17:54:44.114Z,1.70
2023-03-05T17:57:47.808Z,1.40
2023-03-05T18:00:51.741Z,1.55
2023-03-05T18:03:54.326Z,1.45
2023-03-05T18:06:57.304Z,1.30
2023-03-05T18:09:59.837Z,1.77
2023-03-05T18:13:02.232Z,1.60
2023-03-05T18:16:06.399Z,1.45
2023-03-05T18:19:10.809Z,1.20
2023-03-05T18:22:13.197Z,1.40
2023-03-05T18:25:15.503Z,1.45
2023-03-05T18:28:18.180Z,1.38
2023-03-05T18:31:21.902Z,1.30
2023-03-05T18:34:25.768Z,1.50
2023-03-05T18:37:28.081Z,1.42
2023-03-05T18:40:35.690Z,1.50
2023-03-05T18:43:38.395Z,1.20
2023-03-05T18:46:42.113Z,1.45
2023-03-05T18:49:44.397Z,1.20
2023-03-05T18:52:47.926Z,1.10
2023-03-05T18:55:51.792Z,1.20
2023-03-05T18:58:54.299Z,0.85
2023-03-05T19:01:58.026Z,1.30
2023-03-05T19:05:01.083Z,1.30
2023-03-05T19:08:04.232Z,1.35
2023-03-05T19:11:15.107Z,1.30
2023-03-05T19:14:18.438Z,1.40
2023-03-05T19:17:22.122Z,1.20
2023-03-05T19:20:24.699Z,0.95
2023-03-05T19:23:27.346Z,1.60
2023-03-05T19:26:29.997Z,1.30
2023-03-05T19:29:32.989Z,1.10
2023-03-05T19:32:37.046Z,1.17
2023-03-05T19:35:41.164Z,1.30
2023-03-05T19:38:43.599Z,1.00
2023-03-05T19:41:45.894Z,1.13
2023-03-05T19:44:48.190Z,1.25
2023-03-05T19:47:51.853Z,1.67
2023-03-05T19:50:54.326Z,1.20
2023-03-05T19:53:56.667Z,1.35
2023-03-05T19:57:00.052Z,1.00
2023-03-05T20:00:02.633Z,1.20
2023-03-05T20:03:09.233Z,1.40
2023-03-05T20:06:11.559Z,1.40
2023-03-05T20:09:14.624Z,1.05
2023-03-05T20:12:16.935Z,1.20
2023-03-05T20:15:19.787Z,1.30
2023-03-05T20:18:23.520Z,1.25
2023-03-05T20:21:28.226Z,1.60
2023-03-05T20:24:30.691Z,1.65
2023-03-05T20:27:33.808Z,1.60
2023-03-05T20:30:36.184Z,1.48
2023-03-05T20:33:39.970Z,1.65
2023-03-05T20:36:42.862Z,2.08
2023-03-05T20:39:45.268Z,1.52
2023-03-05T20:42:47.588Z,1.75
2023-03-05T20:45:50.238Z,1.85
2023-03-05T20:48:56.536Z,2.17
2023-03-05T20:51:58.915Z,2.08
2023-03-05T20:55:01.910Z,1.90
2023-03-05T20:58:05.547Z,2.05
2023-03-05T21:01:07.977Z,1.90
2023-03-05T21:04:11.799Z,2.33
2023-03-05T21:07:14.219Z,2.22
2023-03-05T21:10:16.860Z,2.30
2023-03-05T21:13:19.470Z,2.25
2023-03-05T21:16:23.516Z,2.50
2023-03-05T21:19:27.248Z,2.58
2023-03-05T21:22:29.566Z,2.22
2023-03-05T21:25:32.982Z,2.20
2023-03-05T21:28:36.242Z,2.95
2023-03-05T21:31:38.596Z,2.55
2023-03-05T21:34:44.119Z,2.60
2023-03-05T21:37:46.659Z,2.47
2023-03-05T21:40:50.117Z,2.53
2023-03-05T21:43:52.490Z,2.70
2023-03-05T21:46:55.659Z,2.97
2023-03-05T21:49:59.313Z,2.53
2023-03-05T21:53:02.169Z,2.63
2023-03-05T21:56:25.511Z,2.67
2023-03-05T21:59:36.044Z,2.75
2023-03-05T22:02:41.544Z,2.80
2023-03-05T22:05:45.513Z,2.60
2023-03-05T22:08:48.318Z,3.47
2023-03-05T22:11:50.695Z,2.72
2023-03-05T22:14:53.032Z,2.65
2023-03-05T22:17:55.453Z,2.70
2023-03-05T22:21:00.121Z,2.78
2023-03-05T22:24:02.738Z,1.75
2023-03-05T22:27:05.067Z,1.73
2023-03-05T22:30:09.719Z,1.55
2023-03-05T22:33:12.473Z,1.90
2023-03-05T22:36:16.254Z,1.70
2023-03-05T22:39:18.593Z,1.52
2023-03-05T22:42:20.906Z,1.40
2023-03-05T22:45:23.150Z,1.60
2023-03-05T22:48:25.473Z,1.40
2023-03-05T22:51:29.260Z,1.38
2023-03-05T22:54:31.549Z,1.80
2023-03-05T22:57:35.186Z,1.48
2023-03-05T23:00:37.771Z,1.70
2023-03-05T23:03:40.529Z,1.27
2023-03-05T23:06:44.285Z,1.48
2023-03-05T23:09:51.426Z,1.73
2023-03-05T23:12:55.150Z,1.52
2023-03-05T23:15:57.390Z,1.85
2023-03-05T23:18:59.770Z,1.70
2023-03-05T23:22:04.389Z,1.40
2023-03-05T23:25:07.513Z,1.80
2023-03-05T23:28:09.908Z,1.40
2023-03-05T23:31:12.252Z,1.35
2023-03-05T23:34:14.593Z,1.77
2023-03-05T23:37:18.248Z,1.50
2023-03-05T23:40:22.727Z,1.20
2023-03-05T23:43:25.452Z,1.60
2023-03-05T23:46:27.818Z,1.50
2023-03-05T23:49:30.210Z,1.40
2023-03-05T23:52:34.256Z,1.20
2023-03-05T23:55:40.953Z,1.48
2023-03-05T23:58:43.269Z,1.42
